sensor_id;sensor_type;location;lat;lon;timestamp;P1;durP1;ratioP1;P2;durP2;ratioP2
14373;SDS011;7270;49.004;12.066;2022-09-02T00:01:55;1.30;;;1.20;;
14373;SDS011;7270;49.004;12.066;2022-09-02T00:04:27;1.10;;;1.10;;
14373;SDS011;7270;49.004;12.066;2022-09-02T00:06:54;1.30;;;1.20;;
14373;SDS011;7270;49.004;12.066;2022-09-02T00:09:21;1.10;;;1.10;;
14373;SDS011;7270;49.004;12.066;2022-09-02T00:11:48;1.10;;;1.10;;
14373;SDS011;7270;49.004;12.066;2022-09-02T00:14:21;1.20;;;1.20;;
14373;SDS011;7270;49.004;12.066;2022-09-02T00:16:52;1.33;;;1.30;;
14373;SDS011;7270;49.004;12.066;2022-09-02T00:19:20;1.13;;;1.13;;
14373;SDS011;7270;49.004;12.066;2022-09-02T00:21:54;1.10;;;1.10;;
14373;SDS011;7270;49.004;12.066;2022-09-02T00:24:24;1.40;;;1.30;;
14373;SDS011;7270;49.004;12.066;2022-09-02T00:26:50;1.23;;;1.20;;
14373;SDS011;7270;49.004;12.066;2022-09-02T00:29:32;1.30;;;1.20;;
14373;SDS011;7270;49.004;12.066;2022-09-02T00:32:04;1.20;;;1.20;;
14373;SDS011;7270;49.004;12.066;2022-09-02T00:34:30;1.30;;;1.20;;
14373;SDS011;7270;49.004;12.066;2022-09-02T00:37:04;1.40;;;1.30;;
14373;SDS011;7270;49.004;12.066;2022-09-02T00:39:38;1.30;;;1.23;;
14373;SDS011;7270;49.004;12.066;2022-09-02T00:42:12;1.20;;;1.20;;
14373;SDS011;7270;49.004;12.066;2022-09-02T00:44:40;1.30;;;1.20;;
14373;SDS011;7270;49.004;12.066;2022-09-02T00:47:06;1.20;;;1.20;;
14373;SDS011;7270;49.004;12.066;2022-09-02T00:49:33;1.20;;;1.20;;
14373;SDS011;7270;49.004;12.066;2022-09-02T00:52:01;1.20;;;1.20;;
14373;SDS011;7270;49.004;12.066;2022-09-02T00:54:31;1.30;;;1.20;;
14373;SDS011;7270;49.004;12.066;2022-09-02T00:57:00;1.10;;;1.10;;
14373;SDS011;7270;49.004;12.066;2022-09-02T00:59:29;1.10;;;1.10;;
14373;SDS011;7270;49.004;12.066;2022-09-02T01:02:04;1.10;;;1.10;;
14373;SDS011;7270;49.004;12.066;2022-09-02T01:04:34;1.03;;;1.03;;
14373;SDS011;7270;49.004;12.066;2022-09-02T01:07:00;1.00;;;1.00;;
14373;SDS011;7270;49.004;12.066;2022-09-02T01:09:27;1.30;;;1.20;;
14373;SDS011;7270;49.004;12.066;2022-09-02T01:11:55;1.30;;;1.20;;
14373;SDS011;7270;49.004;12.066;2022-09-02T01:14:22;1.30;;;1.20;;
14373;SDS011;7270;49.004;12.066;2022-09-02T01:16:50;1.20;;;1.20;;
14373;SDS011;7270;49.004;12.066;2022-09-02T01:19:19;1.30;;;1.20;;
14373;SDS011;7270;49.004;12.066;2022-09-02T01:21:48;1.10;;;1.10;;
14373;SDS011;7270;49.004;12.066;2022-09-02T01:24:15;1.10;;;1.10;;
14373;SDS011;7270;49.004;12.066;2022-09-02T01:26:42;1.13;;;1.13;;
14373;SDS011;7270;49.004;12.066;2022-09-02T01:29:08;1.10;;;1.10;;
14373;SDS011;7270;49.004;12.066;2022-09-02T01:31:35;1.20;;;1.20;;
14373;SDS011;7270;49.004;12.066;2022-09-02T01:34:01;1.10;;;1.10;;
14373;SDS011;7270;49.004;12.066;2022-09-02T01:36:27;1.17;;;1.17;;
14373;SDS011;7270;49.004;12.066;2022-09-02T01:38:55;1.10;;;1.10;;
14373;SDS011;7270;49.004;12.066;2022-09-02T01:41:21;1.10;;;1.10;;
14373;SDS011;7270;49.004;12.066;2022-09-02T01:43:48;1.10;;;1.10;;
14373;SDS011;7270;49.004;12.066;2022-09-02T01:46:14;1.10;;;1.10;;
14373;SDS011;7270;49.004;12.066;2022-09-02T01:48:40;1.10;;;1.10;;
14373;SDS011;7270;49.004;12.066;2022-09-02T01:51:07;1.30;;;1.20;;
14373;SDS011;7270;49.004;12.066;2022-09-02T01:53:33;1.20;;;1.20;;
14373;SDS011;7270;49.004;12.066;2022-09-02T01:56:02;1.10;;;1.10;;
14373;SDS011;7270;49.004;12.066;2022-09-02T01:58:28;1.40;;;1.30;;
14373;SDS011;7270;49.004;12.066;2022-09-02T02:00:54;1.20;;;1.17;;
14373;SDS011;7270;49.004;12.066;2022-09-02T02:03:21;1.13;;;1.13;;
14373;SDS011;7270;49.004;12.066;2022-09-02T02:05:55;1.40;;;1.30;;
14373;SDS011;7270;49.004;12.066;2022-09-02T02:08:21;1.00;;;1.00;;
14373;SDS011;7270;49.004;12.066;2022-09-02T02:10:48;1.27;;;1.20;;
14373;SDS011;7270;49.004;12.066;2022-09-02T02:13:16;1.30;;;1.20;;
14373;SDS011;7270;49.004;12.066;2022-09-02T02:15:46;1.10;;;1.10;;
14373;SDS011;7270;49.004;12.066;2022-09-02T02:18:12;1.00;;;1.00;;
14373;SDS011;7270;49.004;12.066;2022-09-02T02:20:39;1.20;;;1.20;;
14373;SDS011;7270;49.004;12.066;2022-09-02T02:23:09;1.20;;;1.20;;
14373;SDS011;7270;49.004;12.066;2022-09-02T02:25:35;1.10;;;1.10;;
14373;SDS011;7270;49.004;12.066;2022-09-02T02:28:02;1.10;;;1.10;;
14373;SDS011;7270;49.004;12.066;2022-09-02T02:30:30;1.30;;;1.20;;
14373;SDS011;7270;49.004;12.066;2022-09-02T02:32:57;1.30;;;1.20;;
14373;SDS011;7270;49.004;12.066;2022-09-02T02:35:24;1.00;;;1.00;;
14373;SDS011;7270;49.004;12.066;2022-09-02T02:37:50;1.20;;;1.20;;
14373;SDS011;7270;49.004;12.066;2022-09-02T02:40:17;1.10;;;1.10;;
14373;SDS011;7270;49.004;12.066;2022-09-02T02:42:44;1.13;;;1.13;;
14373;SDS011;7270;49.004;12.066;2022-09-02T02:45:11;1.20;;;1.20;;
14373;SDS011;7270;49.004;12.066;2022-09-02T02:47:39;1.30;;;1.20;;
14373;SDS011;7270;49.004;12.066;2022-09-02T02:50:07;1.20;;;1.20;;
14373;SDS011;7270;49.004;12.066;2022-09-02T02:52:34;1.20;;;1.20;;
14373;SDS011;7270;49.004;12.066;2022-09-02T02:55:15;1.10;;;1.10;;
14373;SDS011;7270;49.004;12.066;2022-09-02T02:57:41;1.50;;;1.40;;
14373;SDS011;7270;49.004;12.066;2022-09-02T03:00:09;1.30;;;1.20;;
14373;SDS011;7270;49.004;12.066;2022-09-02T03:02:36;1.23;;;1.20;;
14373;SDS011;7270;49.004;12.066;2022-09-02T03:05:08;1.10;;;1.10;;
14373;SDS011;7270;49.004;12.066;2022-09-02T03:07:39;1.20;;;1.20;;
14373;SDS011;7270;49.004;12.066;2022-09-02T03:10:06;1.13;;;1.13;;
14373;SDS011;7270;49.004;12.066;2022-09-02T03:12:33;1.10;;;1.10;;
14373;SDS011;7270;49.004;12.066;2022-09-02T03:15:00;1.10;;;1.10;;
14373;SDS011;7270;49.004;12.066;2022-09-02T03:17:27;1.10;;;1.10;;
14373;SDS011;7270;49.004;12.066;2022-09-02T03:19:53;1.30;;;1.20;;
14373;SDS011;7270;49.004;12.066;2022-09-02T03:22:25;1.30;;;1.20;;
14373;SDS011;7270;49.004;12.066;2022-09-02T03:24:51;1.33;;;1.30;;
14373;SDS011;7270;49.004;12.066;2022-09-02T03:27:18;1.40;;;1.30;;
14373;SDS011;7270;49.004;12.066;2022-09-02T03:29:44;1.50;;;1.40;;
14373;SDS011;7270;49.004;12.066;2022-09-02T03:32:10;1.20;;;1.20;;
14373;SDS011;7270;49.004;12.066;2022-09-02T03:34:44;1.40;;;1.30;;
14373;SDS011;7270;49.004;12.066;2022-09-02T03:37:11;1.30;;;1.20;;
14373;SDS011;7270;49.004;12.066;2022-09-02T03:39:38;1.10;;;1.10;;
14373;SDS011;7270;49.004;12.066;2022-09-02T03:42:05;1.20;;;1.20;;
14373;SDS011;7270;49.004;12.066;2022-09-02T03:44:32;1.30;;;1.20;;
14373;SDS011;7270;49.004;12.066;2022-09-02T03:46:59;1.07;;;1.07;;
14373;SDS011;7270;49.004;12.066;2022-09-02T03:49:25;1.10;;;1.10;;
14373;SDS011;7270;49.004;12.066;2022-09-02T03:51:52;1.30;;;1.20;;
14373;SDS011;7270;49.004;12.066;2022-09-02T03:54:26;1.30;;;1.20;;
14373;SDS011;7270;49.004;12.066;2022-09-02T03:56:54;1.20;;;1.20;;
14373;SDS011;7270;49.004;12.066;2022-09-02T03:59:20;1.20;;;1.20;;
14373;SDS011;7270;49.004;12.066;2022-09-02T04:01:46;1.10;;;1.10;;
14373;SDS011;7270;49.004;12.066;2022-09-02T04:04:13;1.10;;;1.10;;
14373;SDS011;7270;49.004;12.066;2022-09-02T04:06:39;1.13;;;1.13;;
14373;SDS011;7270;49.004;12.066;2022-09-02T04:09:05;1.40;;;1.30;;
14373;SDS011;7270;49.004;12.066;2022-09-02T04:11:32;1.20;;;1.20;;
14373;SDS011;7270;49.004;12.066;2022-09-02T04:13:59;1.30;;;1.20;;
14373;SDS011;7270;49.004;12.066;2022-09-02T04:16:26;1.40;;;1.30;;
14373;SDS011;7270;49.004;12.066;2022-09-02T04:19:00;1.40;;;1.30;;
14373;SDS011;7270;49.004;12.066;2022-09-02T04:21:27;1.53;;;1.43;;
14373;SDS011;7270;49.004;12.066;2022-09-02T04:23:54;1.40;;;1.30;;
14373;SDS011;7270;49.004;12.066;2022-09-02T04:26:21;1.10;;;1.10;;
14373;SDS011;7270;49.004;12.066;2022-09-02T04:28:48;1.30;;;1.20;;
14373;SDS011;7270;49.004;12.066;2022-09-02T04:31:17;1.30;;;1.20;;
14373;SDS011;7270;49.004;12.066;2022-09-02T04:33:44;1.20;;;1.20;;
14373;SDS011;7270;49.004;12.066;2022-09-02T04:36:12;1.10;;;1.10;;
14373;SDS011;7270;49.004;12.066;2022-09-02T04:38:39;1.40;;;1.30;;
14373;SDS011;7270;49.004;12.066;2022-09-02T04:41:05;1.30;;;1.20;;
14373;SDS011;7270;49.004;12.066;2022-09-02T04:43:32;1.20;;;1.20;;
14373;SDS011;7270;49.004;12.066;2022-09-02T04:45:58;1.13;;;1.13;;
14373;SDS011;7270;49.004;12.066;2022-09-02T04:48:26;1.37;;;1.27;;
14373;SDS011;7270;49.004;12.066;2022-09-02T04:50:53;1.40;;;1.30;;
14373;SDS011;7270;49.004;12.066;2022-09-02T04:53:19;1.40;;;1.30;;
14373;SDS011;7270;49.004;12.066;2022-09-02T04:55:46;1.27;;;1.20;;
14373;SDS011;7270;49.004;12.066;2022-09-02T04:58:12;1.20;;;1.20;;
14373;SDS011;7270;49.004;12.066;2022-09-02T05:00:39;1.10;;;1.10;;
14373;SDS011;7270;49.004;12.066;2022-09-02T05:03:06;1.20;;;1.20;;
14373;SDS011;7270;49.004;12.066;2022-09-02T05:05:33;1.00;;;1.00;;
14373;SDS011;7270;49.004;12.066;2022-09-02T05:08:06;1.40;;;1.30;;
14373;SDS011;7270;49.004;12.066;2022-09-02T05:10:32;1.40;;;1.30;;
14373;SDS011;7270;49.004;12.066;2022-09-02T05:12:59;1.10;;;1.10;;
14373;SDS011;7270;49.004;12.066;2022-09-02T05:15:25;1.10;;;1.10;;
14373;SDS011;7270;49.004;12.066;2022-09-02T05:17:52;1.33;;;1.27;;
14373;SDS011;7270;49.004;12.066;2022-09-02T05:20:19;1.13;;;1.13;;
14373;SDS011;7270;49.004;12.066;2022-09-02T05:22:52;1.20;;;1.20;;
14373;SDS011;7270;49.004;12.066;2022-09-02T05:25:19;1.13;;;1.13;;
14373;SDS011;7270;49.004;12.066;2022-09-02T05:27:46;1.47;;;1.37;;
14373;SDS011;7270;49.004;12.066;2022-09-02T05:30:15;1.20;;;1.20;;
14373;SDS011;7270;49.004;12.066;2022-09-02T05:32:41;1.17;;;1.17;;
14373;SDS011;7270;49.004;12.066;2022-09-02T05:35:08;1.10;;;1.10;;
14373;SDS011;7270;49.004;12.066;2022-09-02T05:37:34;1.17;;;1.17;;
14373;SDS011;7270;49.004;12.066;2022-09-02T05:40:02;1.37;;;1.27;;
14373;SDS011;7270;49.004;12.066;2022-09-02T05:42:28;1.30;;;1.30;;
14373;SDS011;7270;49.004;12.066;2022-09-02T05:44:55;1.23;;;1.23;;
14373;SDS011;7270;49.004;12.066;2022-09-02T05:47:22;1.23;;;1.20;;
14373;SDS011;7270;49.004;12.066;2022-09-02T05:49:49;1.23;;;1.20;;
14373;SDS011;7270;49.004;12.066;2022-09-02T05:52:16;1.13;;;1.13;;
14373;SDS011;7270;49.004;12.066;2022-09-02T05:54:49;1.40;;;1.30;;
14373;SDS011;7270;49.004;12.066;2022-09-02T05:57:16;1.17;;;1.13;;
14373;SDS011;7270;49.004;12.066;2022-09-02T05:59:43;1.40;;;1.30;;
14373;SDS011;7270;49.004;12.066;2022-09-02T06:02:12;1.10;;;1.10;;
14373;SDS011;7270;49.004;12.066;2022-09-02T06:04:38;1.10;;;1.10;;
14373;SDS011;7270;49.004;12.066;2022-09-02T06:07:05;1.20;;;1.20;;
14373;SDS011;7270;49.004;12.066;2022-09-02T06:09:32;1.00;;;1.00;;
14373;SDS011;7270;49.004;12.066;2022-09-02T06:11:58;1.30;;;1.20;;
14373;SDS011;7270;49.004;12.066;2022-09-02T06:14:26;1.10;;;1.10;;
14373;SDS011;7270;49.004;12.066;2022-09-02T06:16:53;1.10;;;1.10;;
14373;SDS011;7270;49.004;12.066;2022-09-02T06:19:20;1.10;;;1.10;;
14373;SDS011;7270;49.004;12.066;2022-09-02T06:21:48;1.10;;;1.10;;
14373;SDS011;7270;49.004;12.066;2022-09-02T06:24:14;1.00;;;1.00;;
14373;SDS011;7270;49.004;12.066;2022-09-02T06:26:40;1.07;;;1.07;;
14373;SDS011;7270;49.004;12.066;2022-09-02T06:29:07;1.10;;;1.10;;
14373;SDS011;7270;49.004;12.066;2022-09-02T06:31:35;1.00;;;1.00;;
14373;SDS011;7270;49.004;12.066;2022-09-02T06:34:02;1.00;;;1.00;;
14373;SDS011;7270;49.004;12.066;2022-09-02T06:36:29;0.90;;;0.90;;
14373;SDS011;7270;49.004;12.066;2022-09-02T06:38:56;0.90;;;0.90;;
14373;SDS011;7270;49.004;12.066;2022-09-02T06:41:23;0.90;;;0.90;;
14373;SDS011;7270;49.004;12.066;2022-09-02T06:43:51;0.90;;;0.90;;
14373;SDS011;7270;49.004;12.066;2022-09-02T06:46:19;1.00;;;1.00;;
14373;SDS011;7270;49.004;12.066;2022-09-02T06:48:47;0.80;;;0.80;;
14373;SDS011;7270;49.004;12.066;2022-09-02T06:51:15;0.90;;;0.90;;
14373;SDS011;7270;49.004;12.066;2022-09-02T06:53:41;0.90;;;0.90;;
14373;SDS011;7270;49.004;12.066;2022-09-02T06:56:07;0.90;;;0.90;;
14373;SDS011;7270;49.004;12.066;2022-09-02T06:58:34;0.80;;;0.80;;
14373;SDS011;7270;49.004;12.066;2022-09-02T07:01:01;0.80;;;0.80;;
14373;SDS011;7270;49.004;12.066;2022-09-02T07:03:27;0.90;;;0.90;;
14373;SDS011;7270;49.004;12.066;2022-09-02T07:06:12;0.90;;;0.90;;
14373;SDS011;7270;49.004;12.066;2022-09-02T07:08:40;1.10;;;1.10;;
14373;SDS011;7270;49.004;12.066;2022-09-02T07:11:11;1.20;;;1.20;;
14373;SDS011;7270;49.004;12.066;2022-09-02T07:13:40;0.90;;;0.90;;
14373;SDS011;7270;49.004;12.066;2022-09-02T07:16:06;1.00;;;1.00;;
14373;SDS011;7270;49.004;12.066;2022-09-02T07:18:32;0.90;;;0.90;;
14373;SDS011;7270;49.004;12.066;2022-09-02T07:21:01;0.80;;;0.80;;
14373;SDS011;7270;49.004;12.066;2022-09-02T07:23:30;0.80;;;0.80;;
14373;SDS011;7270;49.004;12.066;2022-09-02T07:25:56;0.90;;;0.90;;
14373;SDS011;7270;49.004;12.066;2022-09-02T07:28:22;0.80;;;0.80;;
14373;SDS011;7270;49.004;12.066;2022-09-02T07:30:49;1.00;;;1.00;;
14373;SDS011;7270;49.004;12.066;2022-09-02T07:33:18;0.90;;;0.90;;
14373;SDS011;7270;49.004;12.066;2022-09-02T07:35:52;0.90;;;0.90;;
14373;SDS011;7270;49.004;12.066;2022-09-02T07:38:18;0.90;;;0.90;;
14373;SDS011;7270;49.004;12.066;2022-09-02T07:40:46;1.00;;;1.00;;
14373;SDS011;7270;49.004;12.066;2022-09-02T07:43:14;1.00;;;1.00;;
14373;SDS011;7270;49.004;12.066;2022-09-02T07:45:41;1.00;;;1.00;;
14373;SDS011;7270;49.004;12.066;2022-09-02T07:48:08;1.00;;;1.00;;
14373;SDS011;7270;49.004;12.066;2022-09-02T07:50:35;1.20;;;1.20;;
14373;SDS011;7270;49.004;12.066;2022-09-02T07:53:09;1.40;;;1.30;;
14373;SDS011;7270;49.004;12.066;2022-09-02T07:55:38;1.60;;;1.50;;
14373;SDS011;7270;49.004;12.066;2022-09-02T07:58:06;2.40;;;2.30;;
14373;SDS011;7270;49.004;12.066;2022-09-02T08:00:35;3.17;;;3.07;;
14373;SDS011;7270;49.004;12.066;2022-09-02T08:03:03;3.73;;;3.53;;
14373;SDS011;7270;49.004;12.066;2022-09-02T08:05:30;2.40;;;2.30;;
14373;SDS011;7270;49.004;12.066;2022-09-02T08:07:56;2.10;;;2.00;;
14373;SDS011;7270;49.004;12.066;2022-09-02T08:10:24;2.70;;;2.60;;
14373;SDS011;7270;49.004;12.066;2022-09-02T08:12:52;2.70;;;2.60;;
14373;SDS011;7270;49.004;12.066;2022-09-02T08:15:21;2.83;;;2.73;;
14373;SDS011;7270;49.004;12.066;2022-09-02T08:17:47;2.80;;;2.70;;
14373;SDS011;7270;49.004;12.066;2022-09-02T08:20:14;3.00;;;2.90;;
14373;SDS011;7270;49.004;12.066;2022-09-02T08:22:41;3.60;;;3.40;;
14373;SDS011;7270;49.004;12.066;2022-09-02T08:25:08;3.40;;;3.20;;
14373;SDS011;7270;49.004;12.066;2022-09-02T08:27:35;2.97;;;2.87;;
14373;SDS011;7270;49.004;12.066;2022-09-02T08:30:02;3.03;;;2.93;;
14373;SDS011;7270;49.004;12.066;2022-09-02T08:32:30;2.60;;;2.50;;
14373;SDS011;7270;49.004;12.066;2022-09-02T08:34:57;2.37;;;2.27;;
14373;SDS011;7270;49.004;12.066;2022-09-02T08:37:23;2.40;;;2.30;;
14373;SDS011;7270;49.004;12.066;2022-09-02T08:39:57;2.30;;;2.20;;
14373;SDS011;7270;49.004;12.066;2022-09-02T08:42:25;2.50;;;2.40;;
14373;SDS011;7270;49.004;12.066;2022-09-02T08:44:55;2.20;;;2.10;;
14373;SDS011;7270;49.004;12.066;2022-09-02T08:47:24;2.17;;;2.07;;
14373;SDS011;7270;49.004;12.066;2022-09-02T08:49:55;2.47;;;2.37;;
14373;SDS011;7270;49.004;12.066;2022-09-02T08:52:24;3.57;;;3.40;;
14373;SDS011;7270;49.004;12.066;2022-09-02T08:54:53;569.67;;;507.27;;
14373;SDS011;7270;49.004;12.066;2022-09-02T08:57:20;39.43;;;37.60;;
14373;SDS011;7270;49.004;12.066;2022-09-02T08:59:50;11.73;;;11.13;;
14373;SDS011;7270;49.004;12.066;2022-09-02T09:02:19;5.87;;;5.57;;
14373;SDS011;7270;49.004;12.066;2022-09-02T09:07:32;3.13;;;3.03;;
14373;SDS011;7270;49.004;12.066;2022-09-02T09:10:02;3.13;;;3.03;;
14373;SDS011;7270;49.004;12.066;2022-09-02T09:12:36;3.87;;;3.67;;
14373;SDS011;7270;49.004;12.066;2022-09-02T09:15:04;4.77;;;4.57;;
14373;SDS011;7270;49.004;12.066;2022-09-02T09:17:36;6.07;;;5.77;;
14373;SDS011;7270;49.004;12.066;2022-09-02T09:20:07;6.97;;;6.67;;
14373;SDS011;7270;49.004;12.066;2022-09-02T09:22:37;12.07;;;11.50;;
14373;SDS011;7270;49.004;12.066;2022-09-02T09:25:12;14.20;;;13.52;;
14373;SDS011;7270;49.004;12.066;2022-09-02T09:27:40;20.73;;;19.75;;
14373;SDS011;7270;49.004;12.066;2022-09-02T09:30:07;27.83;;;26.52;;
14373;SDS011;7270;49.004;12.066;2022-09-02T09:32:34;48.90;;;46.60;;
14373;SDS011;7270;49.004;12.066;2022-09-02T09:35:03;211.25;;;201.13;;
14373;SDS011;7270;49.004;12.066;2022-09-02T09:37:42;670.97;;;627.03;;
14373;SDS011;7270;49.004;12.066;2022-09-02T09:40:19;765.22;;;698.88;;
14373;SDS011;7270;49.004;12.066;2022-09-02T09:42:55;733.77;;;668.40;;
14373;SDS011;7270;49.004;12.066;2022-09-02T09:45:26;764.43;;;698.13;;
14373;SDS011;7270;49.004;12.066;2022-09-02T09:50:43;769.50;;;702.85;;
14373;SDS011;7270;49.004;12.066;2022-09-02T09:53:15;766.05;;;710.90;;
14373;SDS011;7270;49.004;12.066;2022-09-02T09:55:49;777.05;;;720.60;;
14373;SDS011;7270;49.004;12.066;2022-09-02T09:58:15;707.92;;;659.35;;
14373;SDS011;7270;49.004;12.066;2022-09-02T10:00:42;711.35;;;663.42;;
14373;SDS011;7270;49.004;12.066;2022-09-02T10:03:16;764.05;;;706.58;;
14373;SDS011;7270;49.004;12.066;2022-09-02T10:05:43;774.75;;;709.33;;
14373;SDS011;7270;49.004;12.066;2022-09-02T10:08:19;772.47;;;711.38;;
14373;SDS011;7270;49.004;12.066;2022-09-02T10:10:54;771.70;;;710.38;;
14373;SDS011;7270;49.004;12.066;2022-09-02T10:13:21;778.63;;;715.55;;
14373;SDS011;7270;49.004;12.066;2022-09-02T10:15:53;797.05;;;730.40;;
14373;SDS011;7270;49.004;12.066;2022-09-02T10:18:22;810.90;;;743.40;;
14373;SDS011;7270;49.004;12.066;2022-09-02T10:20:52;775.47;;;717.40;;
14373;SDS011;7270;49.004;12.066;2022-09-02T10:23:28;760.80;;;705.72;;
14373;SDS011;7270;49.004;12.066;2022-09-02T10:26:00;720.50;;;670.85;;
14373;SDS011;7270;49.004;12.066;2022-09-02T10:28:32;588.92;;;553.22;;
14373;SDS011;7270;49.004;12.066;2022-09-02T10:31:03;661.03;;;617.03;;
14373;SDS011;7270;49.004;12.066;2022-09-02T10:33:39;705.95;;;654.10;;
14373;SDS011;7270;49.004;12.066;2022-09-02T10:36:09;736.00;;;670.97;;
14373;SDS011;7270;49.004;12.066;2022-09-02T10:38:46;193.55;;;185.18;;
14373;SDS011;7270;49.004;12.066;2022-09-02T10:41:17;29.13;;;27.77;;
14373;SDS011;7270;49.004;12.066;2022-09-02T10:43:51;113.57;;;108.47;;
14373;SDS011;7270;49.004;12.066;2022-09-02T10:46:33;6.33;;;6.03;;
14373;SDS011;7270;49.004;12.066;2022-09-02T10:49:02;6.37;;;6.07;;
14373;SDS011;7270;49.004;12.066;2022-09-02T10:51:33;8.80;;;8.40;;
14373;SDS011;7270;49.004;12.066;2022-09-02T10:54:12;7.17;;;6.77;;
14373;SDS011;7270;49.004;12.066;2022-09-02T10:56:44;6.20;;;5.90;;
14373;SDS011;7270;49.004;12.066;2022-09-02T10:59:15;4.90;;;4.70;;
14373;SDS011;7270;49.004;12.066;2022-09-02T11:01:43;5.00;;;4.70;;
14373;SDS011;7270;49.004;12.066;2022-09-02T11:04:15;6.43;;;6.13;;
14373;SDS011;7270;49.004;12.066;2022-09-02T11:06:43;12.00;;;11.43;;
14373;SDS011;7270;49.004;12.066;2022-09-02T11:09:13;8.83;;;8.43;;
14373;SDS011;7270;49.004;12.066;2022-09-02T11:11:41;6.87;;;6.50;;
14373;SDS011;7270;49.004;12.066;2022-09-02T11:14:14;8.50;;;8.10;;
14373;SDS011;7270;49.004;12.066;2022-09-02T11:16:44;4.60;;;4.40;;
14373;SDS011;7270;49.004;12.066;2022-09-02T11:19:13;3.50;;;3.30;;
14373;SDS011;7270;49.004;12.066;2022-09-02T11:21:51;122.57;;;111.90;;
14373;SDS011;7270;49.004;12.066;2022-09-02T11:24:22;562.03;;;512.27;;
14373;SDS011;7270;49.004;12.066;2022-09-02T11:26:52;5.57;;;5.27;;
14373;SDS011;7270;49.004;12.066;2022-09-02T11:29:21;5.27;;;5.07;;
14373;SDS011;7270;49.004;12.066;2022-09-02T11:31:54;6.25;;;5.95;;
14373;SDS011;7270;49.004;12.066;2022-09-02T11:34:25;687.50;;;623.53;;
14373;SDS011;7270;49.004;12.066;2022-09-02T11:36:59;18.40;;;17.53;;
14373;SDS011;7270;49.004;12.066;2022-09-02T11:39:28;4.50;;;4.27;;
14373;SDS011;7270;49.004;12.066;2022-09-02T11:42:00;4.13;;;3.93;;
14373;SDS011;7270;49.004;12.066;2022-09-02T11:50:05;5.50;;;5.27;;
14373;SDS011;7270;49.004;12.066;2022-09-02T11:52:42;3.80;;;3.60;;
14373;SDS011;7270;49.004;12.066;2022-09-02T11:55:13;4.30;;;4.10;;
14373;SDS011;7270;49.004;12.066;2022-09-02T11:57:49;4.23;;;4.03;;
14373;SDS011;7270;49.004;12.066;2022-09-02T12:00:27;4.87;;;4.57;;
14373;SDS011;7270;49.004;12.066;2022-09-02T12:02:57;4.20;;;4.00;;
14373;SDS011;7270;49.004;12.066;2022-09-02T12:05:44;3.30;;;3.20;;
14373;SDS011;7270;49.004;12.066;2022-09-02T12:08:11;2.80;;;2.70;;
14373;SDS011;7270;49.004;12.066;2022-09-02T12:11:00;2.90;;;2.80;;
14373;SDS011;7270;49.004;12.066;2022-09-02T12:13:32;2.70;;;2.60;;
14373;SDS011;7270;49.004;12.066;2022-09-02T12:18:45;3.20;;;3.00;;
14373;SDS011;7270;49.004;12.066;2022-09-02T12:21:34;5.90;;;5.60;;
14373;SDS011;7270;49.004;12.066;2022-09-02T12:27:07;3.23;;;3.03;;
14373;SDS011;7270;49.004;12.066;2022-09-02T12:29:34;2.40;;;2.30;;
14373;SDS011;7270;49.004;12.066;2022-09-02T12:32:02;2.10;;;2.00;;
14373;SDS011;7270;49.004;12.066;2022-09-02T12:40:09;1.80;;;1.70;;
14373;SDS011;7270;49.004;12.066;2022-09-02T12:42:40;1.90;;;1.80;;
14373;SDS011;7270;49.004;12.066;2022-09-02T12:45:08;2.07;;;1.97;;
14373;SDS011;7270;49.004;12.066;2022-09-02T12:47:41;2.00;;;1.90;;
14373;SDS011;7270;49.004;12.066;2022-09-02T12:50:16;1.83;;;1.73;;
14373;SDS011;7270;49.004;12.066;2022-09-02T12:52:52;1.80;;;1.70;;
14373;SDS011;7270;49.004;12.066;2022-09-02T12:55:33;1.70;;;1.60;;
14373;SDS011;7270;49.004;12.066;2022-09-02T12:58:05;1.63;;;1.53;;
14373;SDS011;7270;49.004;12.066;2022-09-02T13:00:32;1.70;;;1.60;;
14373;SDS011;7270;49.004;12.066;2022-09-02T13:03:02;1.60;;;1.50;;
14373;SDS011;7270;49.004;12.066;2022-09-02T13:05:32;1.80;;;1.70;;
14373;SDS011;7270;49.004;12.066;2022-09-02T13:08:08;1.70;;;1.60;;
14373;SDS011;7270;49.004;12.066;2022-09-02T13:11:16;1.70;;;1.60;;
14373;SDS011;7270;49.004;12.066;2022-09-02T13:16:38;1.50;;;1.40;;
14373;SDS011;7270;49.004;12.066;2022-09-02T13:22:10;1.57;;;1.47;;
14373;SDS011;7270;49.004;12.066;2022-09-02T13:27:52;1.60;;;1.50;;
14373;SDS011;7270;49.004;12.066;2022-09-02T13:30:27;1.70;;;1.60;;
14373;SDS011;7270;49.004;12.066;2022-09-02T13:32:58;1.70;;;1.60;;
14373;SDS011;7270;49.004;12.066;2022-09-02T13:35:27;1.53;;;1.43;;
14373;SDS011;7270;49.004;12.066;2022-09-02T13:37:54;1.60;;;1.50;;
14373;SDS011;7270;49.004;12.066;2022-09-02T13:40:24;1.50;;;1.40;;
14373;SDS011;7270;49.004;12.066;2022-09-02T13:42:55;1.50;;;1.40;;
14373;SDS011;7270;49.004;12.066;2022-09-02T13:45:22;1.50;;;1.40;;
14373;SDS011;7270;49.004;12.066;2022-09-02T13:47:49;1.50;;;1.40;;
14373;SDS011;7270;49.004;12.066;2022-09-02T13:50:17;1.50;;;1.40;;
14373;SDS011;7270;49.004;12.066;2022-09-02T13:52:45;1.53;;;1.43;;
14373;SDS011;7270;49.004;12.066;2022-09-02T13:55:13;1.50;;;1.40;;
14373;SDS011;7270;49.004;12.066;2022-09-02T13:57:42;1.40;;;1.30;;
14373;SDS011;7270;49.004;12.066;2022-09-02T14:03:02;1.60;;;1.50;;
14373;SDS011;7270;49.004;12.066;2022-09-02T14:05:29;1.50;;;1.40;;
14373;SDS011;7270;49.004;12.066;2022-09-02T14:07:57;1.50;;;1.40;;
14373;SDS011;7270;49.004;12.066;2022-09-02T14:10:24;1.50;;;1.40;;
14373;SDS011;7270;49.004;12.066;2022-09-02T14:12:52;1.50;;;1.40;;
14373;SDS011;7270;49.004;12.066;2022-09-02T14:15:22;1.57;;;1.47;;
14373;SDS011;7270;49.004;12.066;2022-09-02T14:23:23;1.73;;;1.63;;
14373;SDS011;7270;49.004;12.066;2022-09-02T14:25:50;1.50;;;1.40;;
14373;SDS011;7270;49.004;12.066;2022-09-02T14:28:18;1.37;;;1.30;;
14373;SDS011;7270;49.004;12.066;2022-09-02T14:30:52;1.57;;;1.47;;
14373;SDS011;7270;49.004;12.066;2022-09-02T14:33:23;1.40;;;1.30;;
14373;SDS011;7270;49.004;12.066;2022-09-02T14:35:59;1.40;;;1.30;;
14373;SDS011;7270;49.004;12.066;2022-09-02T14:38:35;1.50;;;1.40;;
14373;SDS011;7270;49.004;12.066;2022-09-02T14:41:03;1.40;;;1.30;;
14373;SDS011;7270;49.004;12.066;2022-09-02T14:43:39;1.40;;;1.30;;
14373;SDS011;7270;49.004;12.066;2022-09-02T14:46:12;1.40;;;1.30;;
14373;SDS011;7270;49.004;12.066;2022-09-02T14:48:49;1.40;;;1.30;;
14373;SDS011;7270;49.004;12.066;2022-09-02T14:51:17;1.40;;;1.30;;
14373;SDS011;7270;49.004;12.066;2022-09-02T14:53:45;1.40;;;1.30;;
14373;SDS011;7270;49.004;12.066;2022-09-02T14:56:11;1.40;;;1.30;;
14373;SDS011;7270;49.004;12.066;2022-09-02T14:58:37;1.37;;;1.27;;
14373;SDS011;7270;49.004;12.066;2022-09-02T15:01:04;1.40;;;1.30;;
14373;SDS011;7270;49.004;12.066;2022-09-02T15:03:39;1.40;;;1.30;;
14373;SDS011;7270;49.004;12.066;2022-09-02T15:06:14;1.30;;;1.20;;
14373;SDS011;7270;49.004;12.066;2022-09-02T15:08:40;1.40;;;1.30;;
14373;SDS011;7270;49.004;12.066;2022-09-02T15:11:08;1.50;;;1.40;;
14373;SDS011;7270;49.004;12.066;2022-09-02T15:13:34;1.40;;;1.30;;
14373;SDS011;7270;49.004;12.066;2022-09-02T15:16:01;1.43;;;1.33;;
14373;SDS011;7270;49.004;12.066;2022-09-02T15:18:28;1.50;;;1.40;;
14373;SDS011;7270;49.004;12.066;2022-09-02T15:20:54;1.40;;;1.30;;
14373;SDS011;7270;49.004;12.066;2022-09-02T15:23:21;1.30;;;1.20;;
14373;SDS011;7270;49.004;12.066;2022-09-02T15:25:48;1.40;;;1.30;;
14373;SDS011;7270;49.004;12.066;2022-09-02T15:28:15;1.50;;;1.40;;
14373;SDS011;7270;49.004;12.066;2022-09-02T15:30:42;1.50;;;1.40;;
14373;SDS011;7270;49.004;12.066;2022-09-02T15:33:08;1.43;;;1.33;;
14373;SDS011;7270;49.004;12.066;2022-09-02T15:35:34;1.40;;;1.30;;